createdAt,value
2017-02-23T00:00:20.074Z,20.34
2017-02-23T00:00:48.233Z,20.44
2017-02-23T00:01:16.456Z,20.48
2017-02-23T00:01:44.581Z,20.42
2017-02-23T00:02:12.805Z,20.35
2017-02-23T00:02:41.102Z,20.3
2017-02-23T00:03:09.017Z,20.38
2017-02-23T00:03:37.225Z,20.44
2017-02-23T00:04:05.432Z,20.37
2017-02-23T00:04:33.458Z,20.35
2017-02-23T00:05:01.493Z,20.44
2017-02-23T00:05:29.641Z,20.42
2017-02-23T00:05:57.732Z,20.48
2017-02-23T00:06:25.839Z,20.44
2017-02-23T00:06:53.947Z,20.49
2017-02-23T00:07:22.167Z,20.46
2017-02-23T00:07:50.540Z,20.49
2017-02-23T00:08:18.726Z,20.44
2017-02-23T00:08:46.874Z,20.44
2017-02-23T00:09:15.154Z,20.53
2017-02-23T00:09:43.299Z,20.57
2017-02-23T00:10:11.375Z,20.57
2017-02-23T00:10:39.463Z,20.57
2017-02-23T00:11:07.691Z,20.61
2017-02-23T00:11:35.696Z,20.56
2017-02-23T00:12:03.818Z,20.51
2017-02-23T00:12:31.990Z,20.56
2017-02-23T00:13:00.431Z,20.53
2017-02-23T00:13:28.909Z,20.42
2017-02-23T00:13:57.013Z,20.49
2017-02-23T00:14:25.084Z,20.49
2017-02-23T00:14:53.232Z,20.42
2017-02-23T00:15:21.353Z,20.46
2017-02-23T00:15:49.526Z,20.48
2017-02-23T00:16:17.796Z,20.44
2017-02-23T00:16:45.907Z,20.32
2017-02-23T00:17:13.773Z,20.38
2017-02-23T00:17:42.013Z,20.44
2017-02-23T00:18:10.229Z,20.4
2017-02-23T00:18:38.402Z,20.34
2017-02-23T00:19:06.245Z,20.46
2017-02-23T00:19:34.364Z,20.35
2017-02-23T00:20:02.481Z,20.34
2017-02-23T00:20:30.548Z,20.46
2017-02-23T00:20:58.659Z,20.42
2017-02-23T00:21:26.816Z,20.48
2017-02-23T00:21:54.681Z,20.42
2017-02-23T00:22:22.823Z,20.46
2017-02-23T00:22:50.965Z,20.44
2017-02-23T00:23:19.027Z,20.48
2017-02-23T00:23:47.173Z,20.44
2017-02-23T00:24:15.387Z,20.48
2017-02-23T00:24:43.539Z,20.51
2017-02-23T00:25:11.660Z,20.46
2017-02-23T00:25:39.691Z,20.46
2017-02-23T00:26:07.909Z,20.48
2017-02-23T00:26:35.977Z,20.48
2017-02-23T00:27:04.094Z,20.46
2017-02-23T00:27:32.266Z,20.44
2017-02-23T00:28:00.502Z,20.42
2017-02-23T00:28:28.528Z,20.3
2017-02-23T00:28:56.648Z,20.34
2017-02-23T00:29:24.882Z,20.3
2017-02-23T00:29:53.020Z,20.46
2017-02-23T00:30:20.886Z,20.35
2017-02-23T00:30:49.086Z,20.46
2017-02-23T00:31:17.309Z,20.34
2017-02-23T00:31:45.302Z,20.48
2017-02-23T00:32:13.469Z,20.34
2017-02-23T00:32:41.482Z,20.37
2017-02-23T00:33:09.695Z,20.4
2017-02-23T00:33:37.878Z,20.3
2017-02-23T00:34:05.854Z,20.34
2017-02-23T00:34:33.877Z,20.35
2017-02-23T00:35:02.115Z,20.46
2017-02-23T00:35:50.695Z,20.34
2017-02-23T00:36:18.929Z,20.42
2017-02-23T00:36:47.152Z,20.41
2017-02-23T00:37:15.369Z,20.42
2017-02-23T00:37:43.525Z,20.38
2017-02-23T00:38:11.743Z,20.34
2017-02-23T00:38:39.852Z,20.3
2017-02-23T00:39:08.116Z,20.49
2017-02-23T00:39:36.218Z,20.49
2017-02-23T00:40:04.486Z,20.42
2017-02-23T00:40:32.702Z,20.53
2017-02-23T00:41:00.794Z,20.63
2017-02-23T00:41:28.883Z,20.57
2017-02-23T00:41:56.996Z,20.61
2017-02-23T00:42:25.052Z,20.57
2017-02-23T00:42:53.254Z,20.58
2017-02-23T00:43:21.406Z,20.6
2017-02-23T00:43:49.583Z,20.6
2017-02-23T00:44:17.738Z,20.57
2017-02-23T00:44:45.914Z,20.57
2017-02-23T00:45:14.041Z,20.6
2017-02-23T00:45:42.138Z,20.64
2017-02-23T00:46:10.137Z,20.63
2017-02-23T00:46:38.174Z,20.6
2017-02-23T00:47:06.365Z,20.57
2017-02-23T00:47:34.469Z,20.57
2017-02-23T00:48:02.707Z,20.57
2017-02-23T00:48:30.833Z,20.58
2017-02-23T00:48:58.832Z,20.53
2017-02-23T00:49:26.785Z,20.51
2017-02-23T00:49:54.880Z,20.49
2017-02-23T00:50:22.913Z,20.46
2017-02-23T00:50:51.107Z,20.53
2017-02-23T00:51:19.235Z,20.48
2017-02-23T00:51:47.317Z,20.51
2017-02-23T00:52:15.549Z,20.53
2017-02-23T00:52:43.523Z,20.53
2017-02-23T00:53:11.752Z,20.53
2017-02-23T00:53:40.021Z,20.56
2017-02-23T00:54:08.149Z,20.56
2017-02-23T00:54:36.258Z,20.54
2017-02-23T00:55:04.335Z,20.54
2017-02-23T00:55:32.532Z,20.64
2017-02-23T00:56:00.533Z,20.6
2017-02-23T00:56:28.600Z,20.57
2017-02-23T00:56:56.733Z,20.61
2017-02-23T00:57:24.920Z,20.66
2017-02-23T00:57:52.967Z,20.68
2017-02-23T00:58:21.272Z,20.64
2017-02-23T00:58:49.485Z,20.66
2017-02-23T00:59:17.510Z,20.66
2017-02-23T00:59:45.497Z,20.67
2017-02-23T01:00:13.523Z,20.66
2017-02-23T01:00:41.760Z,20.58
2017-02-23T01:01:09.805Z,20.63
2017-02-23T01:01:37.991Z,20.67
2017-02-23T01:02:06.070Z,20.68
2017-02-23T01:02:34.228Z,20.56
2017-02-23T01:03:02.345Z,20.67
2017-02-23T01:03:30.648Z,20.67
2017-02-23T01:03:58.846Z,20.63
2017-02-23T01:04:26.899Z,20.6
2017-02-23T01:04:55.080Z,20.61
2017-02-23T01:05:23.091Z,20.66
2017-02-23T01:05:51.248Z,20.71
2017-02-23T01:06:19.416Z,20.64
2017-02-23T01:06:47.335Z,20.64
2017-02-23T01:07:15.410Z,20.56
2017-02-23T01:07:43.631Z,20.64
2017-02-23T01:08:11.752Z,20.71
2017-02-23T01:08:39.870Z,20.63
2017-02-23T01:09:08.073Z,20.72
2017-02-23T01:09:36.090Z,20.67
2017-02-23T01:10:04.304Z,20.68
2017-02-23T01:10:32.484Z,20.67
2017-02-23T01:11:00.690Z,20.64
2017-02-23T01:11:28.863Z,20.67
2017-02-23T01:11:57.006Z,20.68
2017-02-23T01:12:25.130Z,20.71
2017-02-23T01:12:53.306Z,20.67
2017-02-23T01:13:21.425Z,20.71
2017-02-23T01:13:49.623Z,20.66
2017-02-23T01:14:17.864Z,20.72
2017-02-23T01:14:46.034Z,20.71
2017-02-23T01:15:14.046Z,20.71
2017-02-23T01:15:42.266Z,20.71
2017-02-23T01:16:10.291Z,20.67
2017-02-23T01:16:38.469Z,20.71
2017-02-23T01:17:06.559Z,20.68
2017-02-23T01:17:34.653Z,20.71
2017-02-23T01:18:02.777Z,20.64
2017-02-23T01:18:30.944Z,20.64
2017-02-23T01:18:59.067Z,20.63
2017-02-23T01:19:27.217Z,20.56
2017-02-23T01:19:55.307Z,20.64
2017-02-23T01:20:23.443Z,20.63
2017-02-23T01:20:51.635Z,20.61
2017-02-23T01:21:19.769Z,20.57
2017-02-23T01:21:47.916Z,20.58
2017-02-23T01:22:15.959Z,20.57
2017-02-23T01:22:44.087Z,20.58
2017-02-23T01:23:12.253Z,20.56
2017-02-23T01:23:40.403Z,20.51
2017-02-23T01:24:08.539Z,20.57
2017-02-23T01:24:36.714Z,20.44
2017-02-23T01:25:04.963Z,20.44
2017-02-23T01:25:33.084Z,20.56
2017-02-23T01:26:01.280Z,20.42
2017-02-23T01:26:29.515Z,20.53
2017-02-23T01:26:57.717Z,20.44
2017-02-23T01:27:25.766Z,20.44
2017-02-23T01:27:53.789Z,20.51
2017-02-23T01:28:22.003Z,20.44
2017-02-23T01:28:49.995Z,20.56
2017-02-23T01:29:18.182Z,20.42
2017-02-23T01:29:46.245Z,20.48
2017-02-23T01:30:14.280Z,20.49
2017-02-23T01:30:42.199Z,20.49
2017-02-23T01:31:10.339Z,20.48
2017-02-23T01:31:38.487Z,20.53
2017-02-23T01:32:06.697Z,20.48
2017-02-23T01:32:34.874Z,20.46
2017-02-23T01:33:02.983Z,20.57
2017-02-23T01:33:31.245Z,20.44
2017-02-23T01:33:59.423Z,20.46
2017-02-23T01:34:27.472Z,20.58
2017-02-23T01:34:55.580Z,20.53
2017-02-23T01:35:23.729Z,20.42
2017-02-23T01:35:51.762Z,20.44
2017-02-23T01:36:19.820Z,20.46
2017-02-23T01:36:47.996Z,20.54
2017-02-23T01:37:16.005Z,20.48
2017-02-23T01:37:44.201Z,20.54
2017-02-23T01:38:12.266Z,20.48
2017-02-23T01:38:40.759Z,20.44
2017-02-23T01:39:08.803Z,20.56
2017-02-23T01:39:37.033Z,20.44
2017-02-23T01:40:05.231Z,20.44
2017-02-23T01:40:33.409Z,20.46
2017-02-23T01:41:01.479Z,20.56
2017-02-23T01:41:29.740Z,20.56
2017-02-23T01:41:57.991Z,20.58
2017-02-23T01:42:26.093Z,20.63
2017-02-23T01:42:54.272Z,20.6
2017-02-23T01:43:22.495Z,20.58
2017-02-23T01:43:50.819Z,20.54
2017-02-23T01:44:18.886Z,20.57
2017-02-23T01:44:47.003Z,20.53
2017-02-23T01:45:14.937Z,20.57
2017-02-23T01:45:43.056Z,20.63
2017-02-23T01:46:11.093Z,20.56
2017-02-23T01:46:39.297Z,20.57
2017-02-23T01:47:07.489Z,20.61
2017-02-23T01:47:35.605Z,20.51
2017-02-23T01:48:03.733Z,20.6
2017-02-23T01:48:31.920Z,20.56
2017-02-23T01:49:00.187Z,20.58
2017-02-23T01:49:28.341Z,20.61
2017-02-23T01:49:56.594Z,20.58
2017-02-23T01:50:24.656Z,20.58
2017-02-23T01:50:52.705Z,20.64
2017-02-23T01:51:20.830Z,20.6
2017-02-23T01:51:48.966Z,20.61
2017-02-23T01:52:17.100Z,20.61
2017-02-23T01:52:45.198Z,20.58
2017-02-23T01:53:13.476Z,20.61
2017-02-23T01:53:41.690Z,20.57
2017-02-23T01:54:09.700Z,20.6
2017-02-23T01:54:37.809Z,20.58
2017-02-23T01:55:05.838Z,20.63
2017-02-23T01:55:33.952Z,20.63
2017-02-23T01:56:02.139Z,20.57
2017-02-23T01:56:30.269Z,20.6
2017-02-23T01:56:58.372Z,20.53
2017-02-23T01:57:26.615Z,20.71
2017-02-23T01:57:54.629Z,20.56
2017-02-23T01:58:22.686Z,20.6
2017-02-23T01:58:50.895Z,20.63
2017-02-23T01:59:18.927Z,20.61
2017-02-23T01:59:47.003Z,20.56
2017-02-23T02:00:15.090Z,20.61
2017-02-23T02:00:43.283Z,20.6
2017-02-23T02:01:11.263Z,20.58
2017-02-23T02:01:39.470Z,20.6
2017-02-23T02:02:07.580Z,20.6
2017-02-23T02:02:35.721Z,20.57
2017-02-23T02:03:03.834Z,20.57
2017-02-23T02:03:31.878Z,20.56
2017-02-23T02:04:00.144Z,20.6
2017-02-23T02:04:28.357Z,20.57
2017-02-23T02:04:56.512Z,20.63
2017-02-23T02:05:24.683Z,20.56
2017-02-23T02:05:52.841Z,20.57
2017-02-23T02:06:20.893Z,20.51
2017-02-23T02:06:48.905Z,20.48
2017-02-23T02:07:17.111Z,20.51
2017-02-23T02:07:45.396Z,20.46
2017-02-23T02:08:13.513Z,20.44
2017-02-23T02:08:41.596Z,20.46
2017-02-23T02:09:09.835Z,20.49
2017-02-23T02:09:37.917Z,20.46
2017-02-23T02:10:06.003Z,20.49
2017-02-23T02:10:34.211Z,20.44
2017-02-23T02:11:02.342Z,20.48
2017-02-23T02:11:30.587Z,20.48
2017-02-23T02:11:58.611Z,20.32
2017-02-23T02:12:26.697Z,20.34
2017-02-23T02:12:54.869Z,20.42
2017-02-23T02:13:22.887Z,20.34
2017-02-23T02:13:50.922Z,20.34
2017-02-23T02:14:18.984Z,20.34
2017-02-23T02:14:47.121Z,20.34
2017-02-23T02:15:15.221Z,20.44
2017-02-23T02:15:43.384Z,20.44
2017-02-23T02:16:11.508Z,20.48
2017-02-23T02:16:39.645Z,20.4
2017-02-23T02:17:07.759Z,20.42
2017-02-23T02:17:35.856Z,20.37
2017-02-23T02:18:03.971Z,20.44
2017-02-23T02:18:32.013Z,20.41
2017-02-23T02:19:00.259Z,20.46
2017-02-23T02:19:28.477Z,20.41
2017-02-23T02:19:56.631Z,20.42
2017-02-23T02:20:24.773Z,20.3
2017-02-23T02:20:53.205Z,20.35
2017-02-23T02:21:21.415Z,20.35
2017-02-23T02:21:49.529Z,20.27
2017-02-23T02:22:17.759Z,20.35
2017-02-23T02:22:45.785Z,20.4
2017-02-23T02:23:13.909Z,20.29
2017-02-23T02:23:42.055Z,20.35
2017-02-23T02:24:10.096Z,20.3
2017-02-23T02:24:38.208Z,20.44
2017-02-23T02:25:06.426Z,20.4
2017-02-23T02:25:34.605Z,20.37
2017-02-23T02:26:02.767Z,20.38
2017-02-23T02:26:30.849Z,20.27
2017-02-23T02:26:58.941Z,20.38
2017-02-23T02:27:27.004Z,20.29
2017-02-23T02:27:55.017Z,20.35
2017-02-23T02:28:23.191Z,20.41
2017-02-23T02:28:51.221Z,20.35
2017-02-23T02:29:19.331Z,20.32
2017-02-23T02:29:47.447Z,20.4
2017-02-23T02:30:15.561Z,20.41
2017-02-23T02:30:43.620Z,20.29
2017-02-23T02:31:11.721Z,20.35
2017-02-23T02:31:39.846Z,20.38
2017-02-23T02:32:07.925Z,20.4
2017-02-23T02:32:35.931Z,20.26
2017-02-23T02:33:04.129Z,20.32
2017-02-23T02:33:32.172Z,20.41
2017-02-23T02:34:00.289Z,20.4
2017-02-23T02:34:28.538Z,20.35
2017-02-23T02:34:56.645Z,20.35
2017-02-23T02:35:24.624Z,20.4
2017-02-23T02:35:52.789Z,20.41
2017-02-23T02:36:20.937Z,20.35
2017-02-23T02:36:49.028Z,20.38
2017-02-23T02:37:17.112Z,20.34
2017-02-23T02:37:45.015Z,20.34
2017-02-23T02:38:13.110Z,20.35
2017-02-23T02:38:41.308Z,20.34
2017-02-23T02:39:09.457Z,20.29
2017-02-23T02:39:37.678Z,20.32
2017-02-23T02:40:05.865Z,20.23
2017-02-23T02:40:33.877Z,20.25
2017-02-23T02:41:01.934Z,20.26
2017-02-23T02:41:30.058Z,20.25
2017-02-23T02:41:58.114Z,20.37
2017-02-23T02:42:26.321Z,20.3
2017-02-23T02:42:54.365Z,20.27
2017-02-23T02:43:22.568Z,20.32
2017-02-23T02:43:50.770Z,20.25
2017-02-23T02:44:18.985Z,20.26
2017-02-23T02:44:47.130Z,20.3
2017-02-23T02:45:15.249Z,20.23
2017-02-23T02:45:43.419Z,20.29
2017-02-23T02:46:11.559Z,20.25
2017-02-23T02:46:39.774Z,20.25
2017-02-23T02:47:07.849Z,20.3
2017-02-23T02:47:35.987Z,20.2
2017-02-23T02:48:04.226Z,20.25
2017-02-23T02:48:32.131Z,20.26
2017-02-23T02:49:00.087Z,20.32
2017-02-23T02:49:28.202Z,20.23
2017-02-23T02:49:56.384Z,20.22
2017-02-23T02:50:24.427Z,20.22
2017-02-23T02:50:52.669Z,20.25
2017-02-23T02:51:20.872Z,20.25
2017-02-23T02:51:49.117Z,20.25
2017-02-23T02:52:17.123Z,20.27
2017-02-23T02:52:45.150Z,20.26
2017-02-23T02:53:13.273Z,20.19
2017-02-23T02:53:41.528Z,20.16
2017-02-23T02:54:09.705Z,20.25
2017-02-23T02:54:37.924Z,20.16
2017-02-23T02:55:05.974Z,20.18
2017-02-23T02:55:33.893Z,20.2
2017-02-23T02:56:02.164Z,20.12
2017-02-23T02:56:30.286Z,20.15
2017-02-23T02:56:58.307Z,20.2
2017-02-23T02:57:26.353Z,20.2
2017-02-23T02:57:54.364Z,20.2
2017-02-23T02:58:22.480Z,20.15
2017-02-23T02:58:50.413Z,20.19
2017-02-23T02:59:18.555Z,20.25
2017-02-23T02:59:46.889Z,20.19
2017-02-23T03:00:14.946Z,20.11
2017-02-23T03:00:43.076Z,20.15
2017-02-23T03:01:11.237Z,20.19
2017-02-23T03:01:39.246Z,20.15
2017-02-23T03:02:07.319Z,20.18
2017-02-23T03:02:35.532Z,20.12
2017-02-23T03:03:03.683Z,20.19
2017-02-23T03:03:31.891Z,20.18
2017-02-23T03:03:59.922Z,20.18
2017-02-23T03:04:28.228Z,20.15
2017-02-23T03:04:56.289Z,20.18
2017-02-23T03:05:24.453Z,20.18
2017-02-23T03:05:52.555Z,20.16
2017-02-23T03:06:20.751Z,20.18
2017-02-23T03:06:48.919Z,20.12
2017-02-23T03:07:16.949Z,20.16
2017-02-23T03:07:45.029Z,20.19
2017-02-23T03:08:13.175Z,20.2
2017-02-23T03:08:41.300Z,20.19
2017-02-23T03:09:09.435Z,20.07
2017-02-23T03:09:37.604Z,20.15
2017-02-23T03:10:05.833Z,20.19
2017-02-23T03:10:33.818Z,20.16
2017-02-23T03:11:01.891Z,20.2
2017-02-23T03:11:29.917Z,20.2
2017-02-23T03:11:58.071Z,20.16
2017-02-23T03:12:26.185Z,20.16
2017-02-23T03:12:54.304Z,20.19
2017-02-23T03:13:22.461Z,20.15
2017-02-23T03:13:50.496Z,20.15
2017-02-23T03:14:18.502Z,20.12
2017-02-23T03:14:46.724Z,20.12
2017-02-23T03:15:14.753Z,20.05
2017-02-23T03:15:42.865Z,20.12
2017-02-23T03:16:11.077Z,20.08
2017-02-23T03:16:39.280Z,20.11
2017-02-23T03:17:07.415Z,20.12
2017-02-23T03:17:35.521Z,20.07
2017-02-23T03:18:03.586Z,20.07
2017-02-23T03:18:31.539Z,20.07
2017-02-23T03:18:59.733Z,20.1
2017-02-23T03:19:27.795Z,20.07
2017-02-23T03:19:56.010Z,20.07
2017-02-23T03:20:24.196Z,20.07
2017-02-23T03:20:52.300Z,20.1
2017-02-23T03:21:20.325Z,20.12
2017-02-23T03:21:48.415Z,20.02
2017-02-23T03:22:16.477Z,20.1
2017-02-23T03:22:44.331Z,20.01
2017-02-23T03:23:12.451Z,20.01
2017-02-23T03:23:40.417Z,20.15
2017-02-23T03:24:08.606Z,20.15
2017-02-23T03:24:36.810Z,20.11
2017-02-23T03:25:05.059Z,20.04
2017-02-23T03:25:33.231Z,20.05
2017-02-23T03:26:01.349Z,20.05
2017-02-23T03:26:29.586Z,20.08
2017-02-23T03:26:57.629Z,20.16
2017-02-23T03:27:25.756Z,20.15
2017-02-23T03:27:53.799Z,20.16
2017-02-23T03:28:21.900Z,20.19
2017-02-23T03:28:49.880Z,20.2
2017-02-23T03:29:18.104Z,20.2
2017-02-23T03:29:46.363Z,20.15
2017-02-23T03:30:14.590Z,20.15
2017-02-23T03:30:42.580Z,20.2
2017-02-23T03:31:10.722Z,20.18
2017-02-23T03:31:38.921Z,20.12
2017-02-23T03:32:07.112Z,20.19
2017-02-23T03:32:35.359Z,20.16
2017-02-23T03:33:03.460Z,20.18
2017-02-23T03:33:31.480Z,20.19
2017-02-23T03:33:59.673Z,20.15
2017-02-23T03:34:27.730Z,20.11
2017-02-23T03:34:55.796Z,20.2
2017-02-23T03:35:23.901Z,20.15
2017-02-23T03:35:51.975Z,20.15
2017-02-23T03:36:20.093Z,20.22
2017-02-23T03:36:48.223Z,20.2
2017-02-23T03:37:16.221Z,20.19
2017-02-23T03:37:44.281Z,20.16
2017-02-23T03:38:12.400Z,20.18
2017-02-23T03:38:40.573Z,20.12
2017-02-23T03:39:08.627Z,20.18
2017-02-23T03:39:36.733Z,20.22
2017-02-23T03:40:05.016Z,20.11
2017-02-23T03:40:33.153Z,20.18
2017-02-23T03:41:01.305Z,20.18
2017-02-23T03:41:29.488Z,20.2
2017-02-23T03:41:57.514Z,20.18
2017-02-23T03:42:25.615Z,20.15
2017-02-23T03:42:53.654Z,20.12
2017-02-23T03:43:21.779Z,20.15
2017-02-23T03:43:49.945Z,20.19
2017-02-23T03:44:18.166Z,20.2
2017-02-23T03:44:46.251Z,20.19
2017-02-23T03:45:14.403Z,20.2
2017-02-23T03:45:42.514Z,20.23
2017-02-23T03:46:10.562Z,20.25
2017-02-23T03:46:38.741Z,20.25
2017-02-23T03:47:06.975Z,20.25
2017-02-23T03:47:35.125Z,20.12
2017-02-23T03:48:03.296Z,20.23
2017-02-23T03:48:31.509Z,20.2
2017-02-23T03:48:59.704Z,20.19
2017-02-23T03:49:27.908Z,20.2
2017-02-23T03:49:56.096Z,20.19
2017-02-23T03:50:24.243Z,20.2
2017-02-23T03:50:52.178Z,20.25
2017-02-23T03:51:20.287Z,20.18
2017-02-23T03:51:48.331Z,20.18
2017-02-23T03:52:16.218Z,20.22
2017-02-23T03:52:44.436Z,20.2
2017-02-23T03:53:12.573Z,20.22
2017-02-23T03:53:40.766Z,20.16
2017-02-23T03:54:08.789Z,20.23
2017-02-23T03:54:36.968Z,20.25
2017-02-23T03:55:05.069Z,20.2
2017-02-23T03:55:33.304Z,20.22
2017-02-23T03:56:01.516Z,20.23
2017-02-23T03:56:29.790Z,20.23
2017-02-23T03:56:57.810Z,20.16
2017-02-23T03:57:25.901Z,20.25
2017-02-23T03:57:54.033Z,20.19
2017-02-23T03:58:22.193Z,20.26
2017-02-23T03:58:50.162Z,20.26
2017-02-23T03:59:18.135Z,20.25
2017-02-23T03:59:46.283Z,20.25
2017-02-23T04:00:14.571Z,20.26
2017-02-23T04:00:42.774Z,20.3
2017-02-23T04:01:10.886Z,20.27
2017-02-23T04:01:38.886Z,20.25
2017-02-23T04:02:06.920Z,20.23
2017-02-23T04:02:35.019Z,20.25
2017-02-23T04:03:03.156Z,20.23
2017-02-23T04:03:31.305Z,20.25
2017-02-23T04:03:59.516Z,20.26
2017-02-23T04:04:27.711Z,20.23
2017-02-23T04:04:55.808Z,20.27
2017-02-23T04:05:24.044Z,20.23
2017-02-23T04:05:52.254Z,20.23
2017-02-23T04:06:20.460Z,20.27
2017-02-23T04:06:48.557Z,20.32
2017-02-23T04:07:16.585Z,20.22
2017-02-23T04:07:44.649Z,20.25
2017-02-23T04:08:12.783Z,20.26
2017-02-23T04:08:40.903Z,20.3
2017-02-23T04:09:09.064Z,20.25
2017-02-23T04:09:37.191Z,20.32
2017-02-23T04:10:05.204Z,20.27
2017-02-23T04:10:33.171Z,20.27
2017-02-23T04:11:01.229Z,20.22
2017-02-23T04:11:29.411Z,20.23
2017-02-23T04:11:57.577Z,20.25
2017-02-23T04:12:25.763Z,20.29
2017-02-23T04:12:53.962Z,20.26
2017-02-23T04:13:22.048Z,20.23
2017-02-23T04:13:50.279Z,20.27
2017-02-23T04:14:18.361Z,20.26
2017-02-23T04:14:46.247Z,20.29
2017-02-23T04:15:14.507Z,20.22
2017-02-23T04:15:42.540Z,20.2
2017-02-23T04:16:10.540Z,20.18
2017-02-23T04:16:38.664Z,20.3
2017-02-23T04:17:06.765Z,20.23
2017-02-23T04:17:34.781Z,20.22
2017-02-23T04:18:02.713Z,20.18
2017-02-23T04:18:30.714Z,20.23
2017-02-23T04:18:58.752Z,20.2
2017-02-23T04:19:26.826Z,20.18
2017-02-23T04:19:55.036Z,20.19
2017-02-23T04:20:23.216Z,20.18
2017-02-23T04:20:51.397Z,20.19
2017-02-23T04:21:19.556Z,20.15
2017-02-23T04:21:47.767Z,20.1
2017-02-23T04:22:15.842Z,20.15
2017-02-23T04:22:43.994Z,20.19
2017-02-23T04:23:12.208Z,20.12
2017-02-23T04:23:40.333Z,20.12
2017-02-23T04:24:08.402Z,20.12
2017-02-23T04:24:36.572Z,20.19
2017-02-23T04:25:04.598Z,20.19
2017-02-23T04:25:32.891Z,20.19
2017-02-23T04:26:01.108Z,20.18
2017-02-23T04:26:29.165Z,20.15
2017-02-23T04:26:57.182Z,20.2
2017-02-23T04:27:25.262Z,20.15
2017-02-23T04:27:53.353Z,20.16
2017-02-23T04:28:21.563Z,20.15
2017-02-23T04:28:49.715Z,20.2
2017-02-23T04:29:17.727Z,20.15
2017-02-23T04:29:45.649Z,20.19
2017-02-23T04:30:13.742Z,20.18
2017-02-23T04:30:41.965Z,20.16
2017-02-23T04:31:10.124Z,20.19
2017-02-23T04:31:38.348Z,20.18
2017-02-23T04:32:06.564Z,20.1
2017-02-23T04:32:34.765Z,20.11
2017-02-23T04:33:02.890Z,20.08
2017-02-23T04:33:30.905Z,20.05
2017-02-23T04:33:58.991Z,20.07
2017-02-23T04:34:27.108Z,20.12
2017-02-23T04:34:55.156Z,20.18
2017-02-23T04:35:23.365Z,20.15
2017-02-23T04:35:51.512Z,20.12
2017-02-23T04:36:19.613Z,20.12
2017-02-23T04:36:47.831Z,20.1
2017-02-23T04:37:16.027Z,20.07
2017-02-23T04:37:44.025Z,20.05
2017-02-23T04:38:12.113Z,20.08
2017-02-23T04:38:40.205Z,20.04
2017-02-23T04:39:08.360Z,20.15
2017-02-23T04:39:36.524Z,20.04
2017-02-23T04:40:04.578Z,20.04
2017-02-23T04:40:32.747Z,20.05
2017-02-23T04:41:00.607Z,20.1
2017-02-23T04:41:28.821Z,20.11
2017-02-23T04:41:57.016Z,20.12
2017-02-23T04:42:25.240Z,20.08
2017-02-23T04:42:53.292Z,20.05
2017-02-23T04:43:21.516Z,20.1
2017-02-23T04:43:49.763Z,20.11
2017-02-23T04:44:17.890Z,20.08
2017-02-23T04:44:46.130Z,20.08
2017-02-23T04:45:14.197Z,20.1
2017-02-23T04:45:42.399Z,20.08
2017-02-23T04:46:10.529Z,20.07
2017-02-23T04:46:38.594Z,20.07
2017-02-23T04:47:06.716Z,20.1
2017-02-23T04:47:34.906Z,20.04
2017-02-23T04:48:02.927Z,20
2017-02-23T04:48:31.147Z,20.05
2017-02-23T04:48:59.273Z,20.02
2017-02-23T04:49:27.448Z,20.11
2017-02-23T04:49:55.542Z,20.07
2017-02-23T04:50:23.864Z,20.08
2017-02-23T04:50:52.176Z,19.97
2017-02-23T04:51:20.313Z,19.93
2017-02-23T04:51:48.208Z,20.08
2017-02-23T04:52:16.283Z,19.93
2017-02-23T04:52:44.348Z,20.07
2017-02-23T04:53:12.373Z,20.02
2017-02-23T04:53:40.498Z,20.04
2017-02-23T04:54:08.692Z,20.02
2017-02-23T04:54:36.748Z,19.97
2017-02-23T04:55:04.848Z,19.98
2017-02-23T04:55:33.053Z,20
2017-02-23T04:56:01.048Z,20.02
2017-02-23T04:56:29.338Z,19.97
2017-02-23T04:56:57.691Z,20
2017-02-23T04:57:25.784Z,19.93
2017-02-23T04:57:53.997Z,19.93
2017-02-23T04:58:22.417Z,19.98
2017-02-23T04:58:50.532Z,20.01
2017-02-23T04:59:18.462Z,20
2017-02-23T04:59:46.860Z,20.01
2017-02-23T05:00:14.975Z,20
2017-02-23T05:00:43.106Z,20.08
2017-02-23T05:01:11.296Z,20.05
2017-02-23T05:01:39.523Z,20.07
2017-02-23T05:02:07.721Z,20.02
2017-02-23T05:02:35.784Z,20.11
2017-02-23T05:03:04.084Z,20.02
2017-02-23T05:03:32.262Z,19.93
2017-02-23T05:04:00.426Z,20.02
2017-02-23T05:04:28.531Z,20.01
2017-02-23T05:04:56.740Z,20.01
2017-02-23T05:05:24.855Z,20.15
2017-02-23T05:05:53.040Z,19.97
2017-02-23T05:06:21.147Z,19.95
2017-02-23T05:06:49.337Z,19.93
2017-02-23T05:07:17.507Z,20.01
2017-02-23T05:07:45.725Z,19.98
2017-02-23T05:08:14.019Z,19.98
2017-02-23T05:08:42.172Z,19.98
2017-02-23T05:09:10.363Z,20
2017-02-23T05:09:38.411Z,20.01
2017-02-23T05:10:06.573Z,20.07
2017-02-23T05:10:34.678Z,20.08
2017-02-23T05:11:02.613Z,20.1
2017-02-23T05:11:30.729Z,20.07
2017-02-23T05:11:58.817Z,20.07
2017-02-23T05:12:27.015Z,20.07
2017-02-23T05:12:54.983Z,20.1
2017-02-23T05:13:23.132Z,20.1
2017-02-23T05:13:51.448Z,20.08
2017-02-23T05:14:19.608Z,20.07
2017-02-23T05:14:47.659Z,20.05
2017-02-23T05:15:15.845Z,20.04
2017-02-23T05:15:43.958Z,20.02
2017-02-23T05:16:12.154Z,19.98
2017-02-23T05:16:40.354Z,20.08
2017-02-23T05:17:08.832Z,20.11
2017-02-23T05:17:37.052Z,20.07
2017-02-23T05:18:05.118Z,20.08
2017-02-23T05:18:33.190Z,20.1
2017-02-23T05:19:01.354Z,20.11
2017-02-23T05:19:29.539Z,20.16
2017-02-23T05:19:57.566Z,20.1
2017-02-23T05:20:25.849Z,20.15
2017-02-23T05:20:54.134Z,20.08
2017-02-23T05:21:22.346Z,20.07
2017-02-23T05:21:50.456Z,20.11
2017-02-23T05:22:18.453Z,20.12
2017-02-23T05:22:46.615Z,20.07
2017-02-23T05:23:14.822Z,20.02
2017-02-23T05:23:42.962Z,20.08
2017-02-23T05:24:11.286Z,20.07
2017-02-23T05:24:39.399Z,20.07
2017-02-23T05:25:07.540Z,20.08
2017-02-23T05:25:35.709Z,20.04
2017-02-23T05:26:03.948Z,19.93
2017-02-23T05:26:32.012Z,20
2017-02-23T05:27:00.082Z,20.01
2017-02-23T05:27:28.415Z,20.02
2017-02-23T05:27:56.400Z,19.97
2017-02-23T05:28:24.457Z,19.95
2017-02-23T05:28:52.523Z,19.97
2017-02-23T05:29:20.749Z,20.02
2017-02-23T05:29:48.819Z,19.95
2017-02-23T05:30:17.151Z,19.98
2017-02-23T05:30:45.123Z,19.97
2017-02-23T05:31:13.271Z,19.93
2017-02-23T05:31:41.473Z,19.92
2017-02-23T05:32:09.514Z,19.92
2017-02-23T05:32:37.795Z,19.98
2017-02-23T05:33:05.921Z,19.92
2017-02-23T05:33:34.030Z,19.93
2017-02-23T05:34:01.962Z,19.92
2017-02-23T05:34:30.018Z,19.95
2017-02-23T05:34:58.293Z,20.01
2017-02-23T05:35:26.273Z,19.97
2017-02-23T05:35:54.507Z,19.97
2017-02-23T05:36:22.728Z,19.98
2017-02-23T05:36:50.944Z,19.95
2017-02-23T05:37:18.987Z,19.97
2017-02-23T05:37:47.141Z,19.9
2017-02-23T05:38:15.431Z,20.07
2017-02-23T05:38:43.532Z,20.04
2017-02-23T05:39:11.696Z,20.02
2017-02-23T05:39:39.861Z,20.05
2017-02-23T05:40:07.946Z,19.95
2017-02-23T05:40:36.044Z,20.02
2017-02-23T05:41:04.163Z,19.98
2017-02-23T05:41:32.481Z,20.02
2017-02-23T05:42:00.538Z,19.98
2017-02-23T05:42:28.718Z,20
2017-02-23T05:42:56.744Z,20.01
2017-02-23T05:43:24.977Z,20.04
2017-02-23T05:43:53.125Z,20
2017-02-23T05:44:21.235Z,20.02
2017-02-23T05:44:49.288Z,20.05
2017-02-23T05:45:17.332Z,20.07
2017-02-23T05:45:45.497Z,20.07
2017-02-23T05:46:13.803Z,20.07
2017-02-23T05:46:41.750Z,20.1
2017-02-23T05:47:09.846Z,20.07
2017-02-23T05:47:37.859Z,20.11
2017-02-23T05:48:05.926Z,20.07
2017-02-23T05:48:34.217Z,20.11
2017-02-23T05:49:02.439Z,20.1
2017-02-23T05:49:30.644Z,20.11
2017-02-23T05:49:58.715Z,20.1
2017-02-23T05:50:26.924Z,20.1
2017-02-23T05:50:55.004Z,20.1
2017-02-23T05:51:23.327Z,20.11
2017-02-23T05:51:51.419Z,20.11
2017-02-23T05:52:19.634Z,20.07
2017-02-23T05:52:47.778Z,20.12
2017-02-23T05:53:15.945Z,20.1
2017-02-23T05:53:44.075Z,20.15
2017-02-23T05:54:12.332Z,20.12
2017-02-23T05:54:40.256Z,20.15
2017-02-23T05:55:08.263Z,20.2
2017-02-23T05:55:36.505Z,20.18
2017-02-23T05:56:04.720Z,20.16
2017-02-23T05:56:32.769Z,20.18
2017-02-23T05:57:01.122Z,20.12
2017-02-23T05:57:29.232Z,20.15
2017-02-23T05:57:57.404Z,20.02
2017-02-23T05:58:25.580Z,20.05
2017-02-23T05:58:53.721Z,20.11
2017-02-23T05:59:21.681Z,20.19
2017-02-23T05:59:49.718Z,20.16
2017-02-23T06:00:18.009Z,20.18
2017-02-23T06:00:46.109Z,20.15
2017-02-23T06:01:14.294Z,20.19
2017-02-23T06:01:42.713Z,20.16
2017-02-23T06:02:10.772Z,20.11
2017-02-23T06:02:38.642Z,20.11
2017-02-23T06:03:06.740Z,20.15
2017-02-23T06:03:35.010Z,20.12
2017-02-23T06:04:03.218Z,20.08
2017-02-23T06:04:31.199Z,20.04